My Meet Scores
Yaneli Santana, Gym Stars ETC - MyMeetScores.com
Top100 | Top Teams | Upcoming Meets | Completed Meets | Latest | Add Scores | Help| Support | Bookmark and Share

Yaneli Santana, Gym Stars ETC
Personal Bests
LevelVault BarsBeamFloorAA
XG9.0759.500 9.4259.27536.575
XS9.5509.800 9.6509.62537.700
Meet Scores
Date Meet Team Session Level Division Vault Bars Beam Floor AA
2019-05-03 2019 Region 5 Xcel Championships Gym Stars ETC 03D XG SR F 9.075 22T 9.200 16 9.375 6T 8.925 30T 36.575 13
2019-04-05 2019 Illinois XG, XP, XD State Championships Gym Stars ETC 8 XG Sr F 8.900 21 9.450 12 9.375 11T 8.700 26 36.425 16T
2019-03-08 Lucky Invite Gym Stars ETC B03 XG Sr 8.625 17 9.275 12 9.425 9 8.825 17 36.150 13
2019-02-15 Women's Midwest Open Gym Stars ETC 10 XG Senior B 8.850 12T 8.800 12 8.900 13 9.275 12 35.825 15
2019-01-11 St Jude Benefit Meet Gym Stars ETC 5C XG Sr B 8.675 11 9.450 4 8.650 10 8.750 11 35.525 9
2018-12-14 Hawaiian Pineapple Classic Gym Stars ETC 7A XG Ages14+ 8.450 11T 9.500 4T 8.200 15 8.650 19 34.800 10
2018-04-26 Xcel Region 5 Championships Gym Stars ETC 12B XS Sr H 9.125 13 9.500 5 9.300 6 9.425 6 37.350 6
2018-04-06 XCEL State Championships Gym Stars ETC 6A XS Sr D 9.175 16T 9.475 11T 9.600 1T 9.450 4T 37.700 7
2018-03-09 Lucky Invitational Gym Stars ETC B10 XS Sr 8.750 13 9.800 2T 9.650 2 9.450 6 37.650 4
2018-02-16 Big Classic Gym Stars ETC 9A XS Junior E 8.900 10T 9.550 8 9.650 3 9.425 1 37.525 5
2018-01-12 St Jude Benefit Meet Gym Stars ETC 9C XS SrB 8.875 6 9.450 5 9.200 7 9.450 3T 36.975 6
2017-12-14 2017 Women's Hawaiian Pineapple Classic Gym Stars ETC 3A XS Ages13+ 8.850 4T 8.925 12 9.475 3 9.625 1 36.875 2
2017-11-17 SCGA Classic Gym Stars ETC 4 XS JrC 8.400 12 9.675 1 9.550 1 9.450 2 37.075 1
2017-05-11 2017 Region 5 Xcel Championships Gym Stars ETC 9B XS Sr E 9.550 3 9.450 9T 9.275 14 9.275 15T 37.550 7
2017-04-21 2017 Illinois Xcel State Championships Gym Stars ETC 8 XS Sr C 9.000 12T 9.575 9 9.375 7 9.450 5 37.400 6
2017-03-10 Lucky Invitational Gym Stars ETC B07 XS Sr B 8.975 13 9.625 2 8.950 11 9.425 2 36.975 7
2017-02-24 Kinetic Classic Gym Stars ETC 8 XS All Ages 9.000 15T 9.525 12T 9.625 14T 9.100 21T 37.250 11
2017-02-10 IGI Chicago Style Gymnastics Meet Gym Stars ETC 631L XS Sr 8.875 6 9.450 2 9.650 2 9.150 4 37.125 3
2017-01-20 2017 Bravo Classic Gym Stars ETC 01B XS 12+yrs 9.075 4 9.475 2 9.400 3T 8.675 14 36.625 7
2016-12-15 2016 Hawaiian Pineapple Sanction Gym Stars ETC 7B XS Ages 13+ 8.825 10 9.300 3 9.400 4 8.950 5 36.475 5
Get your scores on
a t-shirt, pin, or hoodie

Order by December 13

www.lazysuits.com